sensor_id;sensor_type;location;lat;lon;timestamp;temperature;humidity
26408;DHT22;14583;43.604;1.364;2023-04-03T00:01:33;10.50;99.90
26408;DHT22;14583;43.604;1.364;2023-04-03T00:03:59;10.50;99.90
26408;DHT22;14583;43.604;1.364;2023-04-03T00:06:25;10.30;99.90
26408;DHT22;14583;43.604;1.364;2023-04-03T00:08:50;10.40;99.90
26408;DHT22;14583;43.604;1.364;2023-04-03T00:11:16;10.40;99.90
26408;DHT22;14583;43.604;1.364;2023-04-03T00:13:43;10.50;99.90
26408;DHT22;14583;43.604;1.364;2023-04-03T00:16:10;10.40;99.90
26408;DHT22;14583;43.604;1.364;2023-04-03T00:18:37;10.50;99.90
26408;DHT22;14583;43.604;1.364;2023-04-03T00:21:03;10.40;99.90
26408;DHT22;14583;43.604;1.364;2023-04-03T00:23:29;10.40;99.90
26408;DHT22;14583;43.604;1.364;2023-04-03T00:25:55;10.30;99.90
26408;DHT22;14583;43.604;1.364;2023-04-03T00:28:21;10.30;99.90
26408;DHT22;14583;43.604;1.364;2023-04-03T00:30:48;10.40;99.90
26408;DHT22;14583;43.604;1.364;2023-04-03T00:33:14;10.40;99.90
26408;DHT22;14583;43.604;1.364;2023-04-03T00:35:40;10.40;99.90
26408;DHT22;14583;43.604;1.364;2023-04-03T00:38:06;10.40;99.90
26408;DHT22;14583;43.604;1.364;2023-04-03T00:40:37;10.40;99.90
26408;DHT22;14583;43.604;1.364;2023-04-03T00:43:11;10.30;99.90
26408;DHT22;14583;43.604;1.364;2023-04-03T00:45:39;10.40;99.90
26408;DHT22;14583;43.604;1.364;2023-04-03T00:48:09;10.40;99.90
26408;DHT22;14583;43.604;1.364;2023-04-03T00:50:37;10.40;99.90
26408;DHT22;14583;43.604;1.364;2023-04-03T00:53:05;10.30;99.90
26408;DHT22;14583;43.604;1.364;2023-04-03T00:55:32;10.30;99.90
26408;DHT22;14583;43.604;1.364;2023-04-03T00:57:59;10.40;99.90
26408;DHT22;14583;43.604;1.364;2023-04-03T01:00:26;10.30;99.90
26408;DHT22;14583;43.604;1.364;2023-04-03T01:02:52;10.30;99.90
26408;DHT22;14583;43.604;1.364;2023-04-03T01:05:19;10.40;99.90
26408;DHT22;14583;43.604;1.364;2023-04-03T01:07:46;10.30;99.90
26408;DHT22;14583;43.604;1.364;2023-04-03T01:10:15;10.30;99.90
26408;DHT22;14583;43.604;1.364;2023-04-03T01:12:44;10.20;99.90
26408;DHT22;14583;43.604;1.364;2023-04-03T01:15:13;10.30;99.90
26408;DHT22;14583;43.604;1.364;2023-04-03T01:17:41;10.20;99.90
26408;DHT22;14583;43.604;1.364;2023-04-03T01:23:13;10.20;99.90
26408;DHT22;14583;43.604;1.364;2023-04-03T01:25:52;10.20;99.90
26408;DHT22;14583;43.604;1.364;2023-04-03T01:28:22;10.20;99.90
26408;DHT22;14583;43.604;1.364;2023-04-03T01:33:35;10.30;99.90
26408;DHT22;14583;43.604;1.364;2023-04-03T01:36:03;10.20;99.90
26408;DHT22;14583;43.604;1.364;2023-04-03T01:38:29;10.20;99.90
26408;DHT22;14583;43.604;1.364;2023-04-03T01:40:55;10.20;99.90
26408;DHT22;14583;43.604;1.364;2023-04-03T01:43:21;10.30;99.90
26408;DHT22;14583;43.604;1.364;2023-04-03T01:45:46;10.20;99.90
26408;DHT22;14583;43.604;1.364;2023-04-03T01:48:14;10.20;99.90
26408;DHT22;14583;43.604;1.364;2023-04-03T01:50:40;10.30;99.90
26408;DHT22;14583;43.604;1.364;2023-04-03T01:53:06;10.20;99.90
26408;DHT22;14583;43.604;1.364;2023-04-03T01:55:34;10.20;99.90
26408;DHT22;14583;43.604;1.364;2023-04-03T01:58:00;10.20;99.90
26408;DHT22;14583;43.604;1.364;2023-04-03T02:00:25;10.20;99.90
26408;DHT22;14583;43.604;1.364;2023-04-03T02:02:52;10.20;99.90
26408;DHT22;14583;43.604;1.364;2023-04-03T02:05:18;10.20;99.90
26408;DHT22;14583;43.604;1.364;2023-04-03T02:07:43;10.20;99.90
26408;DHT22;14583;43.604;1.364;2023-04-03T02:10:09;10.20;99.90
26408;DHT22;14583;43.604;1.364;2023-04-03T02:12:35;10.10;99.90
26408;DHT22;14583;43.604;1.364;2023-04-03T02:15:01;10.10;99.90
26408;DHT22;14583;43.604;1.364;2023-04-03T02:17:27;10.20;99.90
26408;DHT22;14583;43.604;1.364;2023-04-03T02:19:52;10.10;99.90
26408;DHT22;14583;43.604;1.364;2023-04-03T02:22:18;10.10;99.90
26408;DHT22;14583;43.604;1.364;2023-04-03T02:24:44;10.10;99.90
26408;DHT22;14583;43.604;1.364;2023-04-03T02:27:10;10.10;99.90
26408;DHT22;14583;43.604;1.364;2023-04-03T02:29:36;9.90;99.90
26408;DHT22;14583;43.604;1.364;2023-04-03T02:32:01;9.90;99.90
26408;DHT22;14583;43.604;1.364;2023-04-03T02:34:27;10.00;99.90
26408;DHT22;14583;43.604;1.364;2023-04-03T02:36:54;10.00;99.90
26408;DHT22;14583;43.604;1.364;2023-04-03T02:39:19;10.00;99.90
26408;DHT22;14583;43.604;1.364;2023-04-03T02:41:45;9.90;99.90
26408;DHT22;14583;43.604;1.364;2023-04-03T02:44:11;9.90;99.90
26408;DHT22;14583;43.604;1.364;2023-04-03T02:46:37;10.00;99.90
26408;DHT22;14583;43.604;1.364;2023-04-03T02:49:02;10.00;99.90
26408;DHT22;14583;43.604;1.364;2023-04-03T02:51:28;10.00;99.90
26408;DHT22;14583;43.604;1.364;2023-04-03T02:53:54;10.00;99.90
26408;DHT22;14583;43.604;1.364;2023-04-03T02:56:20;10.00;99.90
26408;DHT22;14583;43.604;1.364;2023-04-03T02:58:46;10.00;99.90
26408;DHT22;14583;43.604;1.364;2023-04-03T03:01:15;9.90;99.90
26408;DHT22;14583;43.604;1.364;2023-04-03T03:03:41;10.00;99.90
26408;DHT22;14583;43.604;1.364;2023-04-03T03:06:08;9.90;99.90
26408;DHT22;14583;43.604;1.364;2023-04-03T03:08:35;9.90;99.90
26408;DHT22;14583;43.604;1.364;2023-04-03T03:11:01;9.90;99.90
26408;DHT22;14583;43.604;1.364;2023-04-03T03:13:26;9.90;99.90
26408;DHT22;14583;43.604;1.364;2023-04-03T03:15:52;10.00;99.90
26408;DHT22;14583;43.604;1.364;2023-04-03T03:18:18;9.90;99.90
26408;DHT22;14583;43.604;1.364;2023-04-03T03:20:44;9.90;99.90
26408;DHT22;14583;43.604;1.364;2023-04-03T03:23:10;9.80;99.90
26408;DHT22;14583;43.604;1.364;2023-04-03T03:25:39;9.80;99.90
26408;DHT22;14583;43.604;1.364;2023-04-03T03:28:05;9.80;99.90
26408;DHT22;14583;43.604;1.364;2023-04-03T03:30:31;9.80;99.90
26408;DHT22;14583;43.604;1.364;2023-04-03T03:32:56;9.80;99.90
26408;DHT22;14583;43.604;1.364;2023-04-03T03:35:22;9.80;99.90
26408;DHT22;14583;43.604;1.364;2023-04-03T03:37:48;9.90;99.90
26408;DHT22;14583;43.604;1.364;2023-04-03T03:40:14;9.90;99.90
26408;DHT22;14583;43.604;1.364;2023-04-03T03:42:39;9.70;99.90
26408;DHT22;14583;43.604;1.364;2023-04-03T03:45:06;9.80;99.90
26408;DHT22;14583;43.604;1.364;2023-04-03T03:47:32;9.80;99.90
26408;DHT22;14583;43.604;1.364;2023-04-03T03:49:57;9.80;99.90
26408;DHT22;14583;43.604;1.364;2023-04-03T03:52:23;9.80;99.90
26408;DHT22;14583;43.604;1.364;2023-04-03T03:54:48;9.70;99.90
26408;DHT22;14583;43.604;1.364;2023-04-03T03:57:14;9.80;99.90
26408;DHT22;14583;43.604;1.364;2023-04-03T03:59:41;9.70;99.90
26408;DHT22;14583;43.604;1.364;2023-04-03T04:02:07;9.80;99.90
26408;DHT22;14583;43.604;1.364;2023-04-03T04:04:33;9.70;99.90
26408;DHT22;14583;43.604;1.364;2023-04-03T04:06:58;9.70;99.90
26408;DHT22;14583;43.604;1.364;2023-04-03T04:09:26;9.80;99.90
26408;DHT22;14583;43.604;1.364;2023-04-03T04:11:52;9.80;99.90
26408;DHT22;14583;43.604;1.364;2023-04-03T04:14:18;9.80;99.90
26408;DHT22;14583;43.604;1.364;2023-04-03T04:16:46;9.90;99.90
26408;DHT22;14583;43.604;1.364;2023-04-03T04:19:12;9.80;99.90
26408;DHT22;14583;43.604;1.364;2023-04-03T04:21:38;9.80;99.90
26408;DHT22;14583;43.604;1.364;2023-04-03T04:24:05;9.80;99.90
26408;DHT22;14583;43.604;1.364;2023-04-03T04:26:31;9.80;99.90
26408;DHT22;14583;43.604;1.364;2023-04-03T04:28:57;9.80;99.90
26408;DHT22;14583;43.604;1.364;2023-04-03T04:31:22;9.70;99.90
26408;DHT22;14583;43.604;1.364;2023-04-03T04:33:48;9.70;99.90
26408;DHT22;14583;43.604;1.364;2023-04-03T04:36:14;9.70;99.90
26408;DHT22;14583;43.604;1.364;2023-04-03T04:38:40;9.70;99.90
26408;DHT22;14583;43.604;1.364;2023-04-03T04:41:06;9.70;99.90
26408;DHT22;14583;43.604;1.364;2023-04-03T04:43:32;9.80;99.90
26408;DHT22;14583;43.604;1.364;2023-04-03T04:46:06;9.80;99.90
26408;DHT22;14583;43.604;1.364;2023-04-03T04:48:32;9.90;99.90
26408;DHT22;14583;43.604;1.364;2023-04-03T04:50:58;9.80;99.90
26408;DHT22;14583;43.604;1.364;2023-04-03T04:53:24;9.80;99.90
26408;DHT22;14583;43.604;1.364;2023-04-03T04:55:49;9.80;99.90
26408;DHT22;14583;43.604;1.364;2023-04-03T04:58:15;9.70;99.90
26408;DHT22;14583;43.604;1.364;2023-04-03T05:00:40;9.60;99.90
26408;DHT22;14583;43.604;1.364;2023-04-03T05:03:06;9.70;99.90
26408;DHT22;14583;43.604;1.364;2023-04-03T05:05:32;9.70;99.90
26408;DHT22;14583;43.604;1.364;2023-04-03T05:07:57;9.60;99.90
26408;DHT22;14583;43.604;1.364;2023-04-03T05:10:23;9.70;99.90
26408;DHT22;14583;43.604;1.364;2023-04-03T05:12:49;9.70;99.90
26408;DHT22;14583;43.604;1.364;2023-04-03T05:15:14;9.80;99.90
26408;DHT22;14583;43.604;1.364;2023-04-03T05:17:40;9.80;99.90
26408;DHT22;14583;43.604;1.364;2023-04-03T05:20:06;9.90;99.90
26408;DHT22;14583;43.604;1.364;2023-04-03T05:22:32;9.80;99.90
26408;DHT22;14583;43.604;1.364;2023-04-03T05:24:57;9.90;99.90
26408;DHT22;14583;43.604;1.364;2023-04-03T05:27:23;9.90;99.90
26408;DHT22;14583;43.604;1.364;2023-04-03T05:29:50;9.80;99.90
26408;DHT22;14583;43.604;1.364;2023-04-03T05:32:16;9.70;99.90
26408;DHT22;14583;43.604;1.364;2023-04-03T05:34:41;9.70;99.90
26408;DHT22;14583;43.604;1.364;2023-04-03T05:37:07;9.70;99.90
26408;DHT22;14583;43.604;1.364;2023-04-03T05:39:33;9.70;99.90
26408;DHT22;14583;43.604;1.364;2023-04-03T05:41:59;9.70;99.90
26408;DHT22;14583;43.604;1.364;2023-04-03T05:44:25;9.70;99.90
26408;DHT22;14583;43.604;1.364;2023-04-03T05:46:51;9.80;99.90
26408;DHT22;14583;43.604;1.364;2023-04-03T05:49:16;9.70;99.90
26408;DHT22;14583;43.604;1.364;2023-04-03T05:51:42;9.70;99.90
26408;DHT22;14583;43.604;1.364;2023-04-03T05:54:26;9.70;99.90
26408;DHT22;14583;43.604;1.364;2023-04-03T05:56:52;9.60;99.90
26408;DHT22;14583;43.604;1.364;2023-04-03T05:59:18;9.70;99.90
26408;DHT22;14583;43.604;1.364;2023-04-03T06:01:45;9.80;99.90
26408;DHT22;14583;43.604;1.364;2023-04-03T06:04:11;9.80;99.90
26408;DHT22;14583;43.604;1.364;2023-04-03T06:06:55;9.80;99.90
26408;DHT22;14583;43.604;1.364;2023-04-03T06:09:24;9.80;99.90
26408;DHT22;14583;43.604;1.364;2023-04-03T06:11:51;9.80;99.90
26408;DHT22;14583;43.604;1.364;2023-04-03T06:14:17;9.90;99.90
26408;DHT22;14583;43.604;1.364;2023-04-03T06:16:43;9.90;99.90
26408;DHT22;14583;43.604;1.364;2023-04-03T06:19:09;9.70;99.90
26408;DHT22;14583;43.604;1.364;2023-04-03T06:21:35;9.80;99.90
26408;DHT22;14583;43.604;1.364;2023-04-03T06:24:02;9.90;99.90
26408;DHT22;14583;43.604;1.364;2023-04-03T06:26:28;9.90;99.90
26408;DHT22;14583;43.604;1.364;2023-04-03T06:28:54;9.90;99.90
26408;DHT22;14583;43.604;1.364;2023-04-03T06:31:20;9.90;99.90
26408;DHT22;14583;43.604;1.364;2023-04-03T06:33:45;9.90;99.90
26408;DHT22;14583;43.604;1.364;2023-04-03T06:36:12;9.90;99.90
26408;DHT22;14583;43.604;1.364;2023-04-03T06:38:38;9.80;99.90
26408;DHT22;14583;43.604;1.364;2023-04-03T06:41:04;9.90;99.90
26408;DHT22;14583;43.604;1.364;2023-04-03T06:43:30;9.90;99.90
26408;DHT22;14583;43.604;1.364;2023-04-03T06:45:58;9.90;99.90
26408;DHT22;14583;43.604;1.364;2023-04-03T06:48:24;9.90;99.90
26408;DHT22;14583;43.604;1.364;2023-04-03T06:50:50;10.00;99.90
26408;DHT22;14583;43.604;1.364;2023-04-03T06:53:15;10.00;99.90
26408;DHT22;14583;43.604;1.364;2023-04-03T06:55:41;10.00;99.90
26408;DHT22;14583;43.604;1.364;2023-04-03T06:58:07;10.10;99.90
26408;DHT22;14583;43.604;1.364;2023-04-03T07:00:33;10.10;99.90
26408;DHT22;14583;43.604;1.364;2023-04-03T07:02:59;10.10;99.90
26408;DHT22;14583;43.604;1.364;2023-04-03T07:05:25;10.20;99.90
26408;DHT22;14583;43.604;1.364;2023-04-03T07:07:51;10.20;99.90
26408;DHT22;14583;43.604;1.364;2023-04-03T07:10:17;10.20;99.90
26408;DHT22;14583;43.604;1.364;2023-04-03T07:12:43;10.20;99.90
26408;DHT22;14583;43.604;1.364;2023-04-03T07:15:09;10.10;99.90
26408;DHT22;14583;43.604;1.364;2023-04-03T07:17:35;10.20;99.90
26408;DHT22;14583;43.604;1.364;2023-04-03T07:20:02;10.30;99.90
26408;DHT22;14583;43.604;1.364;2023-04-03T07:22:29;10.30;99.90
26408;DHT22;14583;43.604;1.364;2023-04-03T07:24:55;10.30;99.90
26408;DHT22;14583;43.604;1.364;2023-04-03T07:27:21;10.30;99.90
26408;DHT22;14583;43.604;1.364;2023-04-03T07:29:46;10.30;99.90
26408;DHT22;14583;43.604;1.364;2023-04-03T07:32:14;10.30;99.90
26408;DHT22;14583;43.604;1.364;2023-04-03T07:34:40;10.20;99.90
26408;DHT22;14583;43.604;1.364;2023-04-03T07:37:06;10.30;99.90
26408;DHT22;14583;43.604;1.364;2023-04-03T07:39:32;10.20;99.90
26408;DHT22;14583;43.604;1.364;2023-04-03T07:41:58;10.40;99.90
26408;DHT22;14583;43.604;1.364;2023-04-03T07:44:24;10.40;99.90
26408;DHT22;14583;43.604;1.364;2023-04-03T07:46:50;10.40;99.90
26408;DHT22;14583;43.604;1.364;2023-04-03T07:49:17;10.40;99.90
26408;DHT22;14583;43.604;1.364;2023-04-03T07:51:48;10.40;99.90
26408;DHT22;14583;43.604;1.364;2023-04-03T07:54:14;10.40;99.90
26408;DHT22;14583;43.604;1.364;2023-04-03T07:56:40;10.50;99.90
26408;DHT22;14583;43.604;1.364;2023-04-03T07:59:08;10.60;99.90
26408;DHT22;14583;43.604;1.364;2023-04-03T08:01:34;10.50;99.90
26408;DHT22;14583;43.604;1.364;2023-04-03T08:04:00;10.60;99.90
26408;DHT22;14583;43.604;1.364;2023-04-03T08:06:25;10.70;99.90
26408;DHT22;14583;43.604;1.364;2023-04-03T08:08:51;10.70;99.90
26408;DHT22;14583;43.604;1.364;2023-04-03T08:11:17;10.80;99.90
26408;DHT22;14583;43.604;1.364;2023-04-03T08:13:44;10.80;99.90
26408;DHT22;14583;43.604;1.364;2023-04-03T08:16:12;10.90;99.90
26408;DHT22;14583;43.604;1.364;2023-04-03T08:18:39;10.90;99.90
26408;DHT22;14583;43.604;1.364;2023-04-03T08:21:11;10.90;99.90
26408;DHT22;14583;43.604;1.364;2023-04-03T08:23:38;10.80;99.90
26408;DHT22;14583;43.604;1.364;2023-04-03T08:26:13;10.70;99.90
26408;DHT22;14583;43.604;1.364;2023-04-03T08:28:39;10.50;99.90
26408;DHT22;14583;43.604;1.364;2023-04-03T08:31:06;10.60;99.90
26408;DHT22;14583;43.604;1.364;2023-04-03T08:33:33;10.70;99.90
26408;DHT22;14583;43.604;1.364;2023-04-03T08:36:01;10.70;99.90
26408;DHT22;14583;43.604;1.364;2023-04-03T08:38:27;10.60;99.90
26408;DHT22;14583;43.604;1.364;2023-04-03T08:41:11;10.60;99.90
26408;DHT22;14583;43.604;1.364;2023-04-03T08:44:11;10.80;99.90
26408;DHT22;14583;43.604;1.364;2023-04-03T08:52:36;10.80;99.90
26408;DHT22;14583;43.604;1.364;2023-04-03T08:58:07;11.00;99.90
26408;DHT22;14583;43.604;1.364;2023-04-03T09:00:55;10.90;99.90
26408;DHT22;14583;43.604;1.364;2023-04-03T09:03:22;11.20;99.90
26408;DHT22;14583;43.604;1.364;2023-04-03T09:05:57;11.50;99.90
26408;DHT22;14583;43.604;1.364;2023-04-03T09:08:45;11.60;99.90
26408;DHT22;14583;43.604;1.364;2023-04-03T09:11:23;11.70;99.90
26408;DHT22;14583;43.604;1.364;2023-04-03T09:17:00;11.80;99.90
26408;DHT22;14583;43.604;1.364;2023-04-03T09:20:17;11.70;99.90
26408;DHT22;14583;43.604;1.364;2023-04-03T09:22:27;11.70;99.90
26408;DHT22;14583;43.604;1.364;2023-04-03T09:25:03;11.50;99.90
26408;DHT22;14583;43.604;1.364;2023-04-03T09:27:31;11.60;99.90
26408;DHT22;14583;43.604;1.364;2023-04-03T09:29:57;11.60;99.90
26408;DHT22;14583;43.604;1.364;2023-04-03T09:32:51;11.70;99.90
26408;DHT22;14583;43.604;1.364;2023-04-03T09:35:30;11.70;99.90
26408;DHT22;14583;43.604;1.364;2023-04-03T09:40:39;11.90;99.90
26408;DHT22;14583;43.604;1.364;2023-04-03T09:45:47;11.90;99.90
26408;DHT22;14583;43.604;1.364;2023-04-03T09:50:56;12.10;99.90
26408;DHT22;14583;43.604;1.364;2023-04-03T09:53:32;12.20;99.90
26408;DHT22;14583;43.604;1.364;2023-04-03T09:55:59;12.20;99.90
26408;DHT22;14583;43.604;1.364;2023-04-03T09:58:35;12.30;99.90
26408;DHT22;14583;43.604;1.364;2023-04-03T10:01:03;12.40;99.90
26408;DHT22;14583;43.604;1.364;2023-04-03T10:03:32;12.50;99.90
26408;DHT22;14583;43.604;1.364;2023-04-03T10:06:00;12.30;99.90
26408;DHT22;14583;43.604;1.364;2023-04-03T10:08:31;12.10;99.90
26408;DHT22;14583;43.604;1.364;2023-04-03T10:11:17;12.20;99.90
26408;DHT22;14583;43.604;1.364;2023-04-03T10:13:58;12.30;99.90
26408;DHT22;14583;43.604;1.364;2023-04-03T10:16:52;12.40;99.90
26408;DHT22;14583;43.604;1.364;2023-04-03T10:19:34;12.50;99.90
26408;DHT22;14583;43.604;1.364;2023-04-03T10:25:10;12.50;99.90
26408;DHT22;14583;43.604;1.364;2023-04-03T10:33:21;12.70;99.90
26408;DHT22;14583;43.604;1.364;2023-04-03T10:36:06;12.80;99.90
26408;DHT22;14583;43.604;1.364;2023-04-03T10:46:53;13.20;99.90
26408;DHT22;14583;43.604;1.364;2023-04-03T10:49:33;13.20;99.90
26408;DHT22;14583;43.604;1.364;2023-04-03T10:52:24;13.30;99.90
26408;DHT22;14583;43.604;1.364;2023-04-03T10:57:23;13.10;99.90
26408;DHT22;14583;43.604;1.364;2023-04-03T10:59:53;13.10;99.90
26408;DHT22;14583;43.604;1.364;2023-04-03T11:04:58;13.20;99.90
26408;DHT22;14583;43.604;1.364;2023-04-03T11:07:26;13.20;99.90
26408;DHT22;14583;43.604;1.364;2023-04-03T11:09:55;13.10;99.90
26408;DHT22;14583;43.604;1.364;2023-04-03T11:12:38;13.10;99.90
26408;DHT22;14583;43.604;1.364;2023-04-03T11:15:15;12.70;99.90
26408;DHT22;14583;43.604;1.364;2023-04-03T11:17:47;12.60;99.90
26408;DHT22;14583;43.604;1.364;2023-04-03T11:20:17;12.50;99.90
26408;DHT22;14583;43.604;1.364;2023-04-03T11:22:51;12.50;99.90
26408;DHT22;14583;43.604;1.364;2023-04-03T11:25:23;12.60;99.90
26408;DHT22;14583;43.604;1.364;2023-04-03T11:27:57;12.60;99.90
26408;DHT22;14583;43.604;1.364;2023-04-03T11:30:44;12.60;99.90
26408;DHT22;14583;43.604;1.364;2023-04-03T11:33:40;12.60;99.90
26408;DHT22;14583;43.604;1.364;2023-04-03T11:36:18;12.70;99.90
26408;DHT22;14583;43.604;1.364;2023-04-03T11:38:46;12.60;99.90
26408;DHT22;14583;43.604;1.364;2023-04-03T11:41:13;12.50;99.90
26408;DHT22;14583;43.604;1.364;2023-04-03T11:43:57;12.60;99.90
26408;DHT22;14583;43.604;1.364;2023-04-03T11:46:48;12.50;99.90
26408;DHT22;14583;43.604;1.364;2023-04-03T12:13:42;13.00;99.90
26408;DHT22;14583;43.604;1.364;2023-04-03T12:24:31;12.70;99.90
26408;DHT22;14583;43.604;1.364;2023-04-03T12:29:33;13.20;99.90
26408;DHT22;14583;43.604;1.364;2023-04-03T12:35:05;13.60;99.90
26408;DHT22;14583;43.604;1.364;2023-04-03T12:40:58;13.40;99.90
26408;DHT22;14583;43.604;1.364;2023-04-03T12:46:07;13.30;99.90
26408;DHT22;14583;43.604;1.364;2023-04-03T12:48:50;13.30;99.90
26408;DHT22;14583;43.604;1.364;2023-04-03T12:51:26;13.20;99.90
26408;DHT22;14583;43.604;1.364;2023-04-03T12:54:00;13.30;99.90
26408;DHT22;14583;43.604;1.364;2023-04-03T12:56:29;13.40;99.90
26408;DHT22;14583;43.604;1.364;2023-04-03T13:01:41;13.80;99.90
26408;DHT22;14583;43.604;1.364;2023-04-03T13:04:10;14.10;99.90
26408;DHT22;14583;43.604;1.364;2023-04-03T13:06:42;14.00;99.90
26408;DHT22;14583;43.604;1.364;2023-04-03T13:09:31;14.10;99.90
26408;DHT22;14583;43.604;1.364;2023-04-03T13:12:08;14.00;99.90
26408;DHT22;14583;43.604;1.364;2023-04-03T13:14:36;14.00;99.90
26408;DHT22;14583;43.604;1.364;2023-04-03T13:17:15;14.20;99.90
26408;DHT22;14583;43.604;1.364;2023-04-03T13:19:43;14.10;99.90
26408;DHT22;14583;43.604;1.364;2023-04-03T13:22:30;14.00;99.90
26408;DHT22;14583;43.604;1.364;2023-04-03T13:25:03;14.20;99.90
26408;DHT22;14583;43.604;1.364;2023-04-03T13:27:31;14.10;99.90
26408;DHT22;14583;43.604;1.364;2023-04-03T13:29:58;14.10;99.90
26408;DHT22;14583;43.604;1.364;2023-04-03T13:32:27;14.20;99.90
26408;DHT22;14583;43.604;1.364;2023-04-03T13:34:53;14.10;99.90
26408;DHT22;14583;43.604;1.364;2023-04-03T13:37:23;14.30;99.90
26408;DHT22;14583;43.604;1.364;2023-04-03T13:42:35;14.90;99.90
26408;DHT22;14583;43.604;1.364;2023-04-03T13:47:43;15.40;99.90
26408;DHT22;14583;43.604;1.364;2023-04-03T13:50:21;15.40;99.90
26408;DHT22;14583;43.604;1.364;2023-04-03T13:53:08;15.00;99.90
26408;DHT22;14583;43.604;1.364;2023-04-03T13:56:36;15.00;99.90
26408;DHT22;14583;43.604;1.364;2023-04-03T13:58:37;14.60;99.90
26408;DHT22;14583;43.604;1.364;2023-04-03T14:01:19;14.30;99.90
26408;DHT22;14583;43.604;1.364;2023-04-03T14:03:53;14.10;99.90
26408;DHT22;14583;43.604;1.364;2023-04-03T14:06:19;14.00;99.90
26408;DHT22;14583;43.604;1.364;2023-04-03T14:08:46;14.00;99.90
26408;DHT22;14583;43.604;1.364;2023-04-03T14:11:18;14.00;99.90
26408;DHT22;14583;43.604;1.364;2023-04-03T14:13:46;14.10;99.90
26408;DHT22;14583;43.604;1.364;2023-04-03T14:16:14;14.20;99.90
26408;DHT22;14583;43.604;1.364;2023-04-03T14:18:43;14.40;99.90
26408;DHT22;14583;43.604;1.364;2023-04-03T14:21:11;14.70;99.90
26408;DHT22;14583;43.604;1.364;2023-04-03T14:23:37;14.70;99.90
26408;DHT22;14583;43.604;1.364;2023-04-03T14:26:08;14.70;99.90
26408;DHT22;14583;43.604;1.364;2023-04-03T14:28:35;14.50;99.90
26408;DHT22;14583;43.604;1.364;2023-04-03T14:31:01;14.50;99.90
26408;DHT22;14583;43.604;1.364;2023-04-03T14:33:27;14.30;99.90
26408;DHT22;14583;43.604;1.364;2023-04-03T14:35:56;14.30;99.90
26408;DHT22;14583;43.604;1.364;2023-04-03T14:38:28;14.10;99.90
26408;DHT22;14583;43.604;1.364;2023-04-03T14:40:54;14.10;99.90
26408;DHT22;14583;43.604;1.364;2023-04-03T14:43:20;14.00;99.90
26408;DHT22;14583;43.604;1.364;2023-04-03T14:45:47;14.00;99.90
26408;DHT22;14583;43.604;1.364;2023-04-03T14:48:18;13.90;99.90
26408;DHT22;14583;43.604;1.364;2023-04-03T14:50:44;13.90;99.90
26408;DHT22;14583;43.604;1.364;2023-04-03T14:53:11;14.00;99.90
26408;DHT22;14583;43.604;1.364;2023-04-03T14:55:45;14.10;99.90
26408;DHT22;14583;43.604;1.364;2023-04-03T14:58:13;14.20;99.90
26408;DHT22;14583;43.604;1.364;2023-04-03T15:00:40;14.20;99.90
26408;DHT22;14583;43.604;1.364;2023-04-03T15:03:05;14.20;99.90
26408;DHT22;14583;43.604;1.364;2023-04-03T15:05:31;14.30;99.90
26408;DHT22;14583;43.604;1.364;2023-04-03T15:07:58;14.30;99.90
26408;DHT22;14583;43.604;1.364;2023-04-03T15:10:28;14.20;99.90
26408;DHT22;14583;43.604;1.364;2023-04-03T15:12:54;14.10;99.90
26408;DHT22;14583;43.604;1.364;2023-04-03T15:15:22;14.00;99.90
26408;DHT22;14583;43.604;1.364;2023-04-03T15:17:51;13.80;99.90
26408;DHT22;14583;43.604;1.364;2023-04-03T15:20:21;13.90;99.90
26408;DHT22;14583;43.604;1.364;2023-04-03T15:22:48;14.00;99.90
26408;DHT22;14583;43.604;1.364;2023-04-03T15:25:14;14.30;99.90
26408;DHT22;14583;43.604;1.364;2023-04-03T15:27:41;14.40;99.90
26408;DHT22;14583;43.604;1.364;2023-04-03T15:30:11;14.70;99.90
26408;DHT22;14583;43.604;1.364;2023-04-03T15:32:37;14.60;99.90
26408;DHT22;14583;43.604;1.364;2023-04-03T15:35:03;15.00;99.90
26408;DHT22;14583;43.604;1.364;2023-04-03T15:37:29;15.80;99.90
26408;DHT22;14583;43.604;1.364;2023-04-03T15:39:54;17.20;99.90
26408;DHT22;14583;43.604;1.364;2023-04-03T15:42:20;17.40;99.90
26408;DHT22;14583;43.604;1.364;2023-04-03T15:44:46;17.00;99.90
26408;DHT22;14583;43.604;1.364;2023-04-03T15:47:12;16.80;99.90
26408;DHT22;14583;43.604;1.364;2023-04-03T15:49:38;16.50;99.90
26408;DHT22;14583;43.604;1.364;2023-04-03T15:52:04;16.20;99.90
26408;DHT22;14583;43.604;1.364;2023-04-03T15:54:29;17.00;99.90
26408;DHT22;14583;43.604;1.364;2023-04-03T15:56:56;16.60;99.90
26408;DHT22;14583;43.604;1.364;2023-04-03T15:59:22;16.20;99.90
26408;DHT22;14583;43.604;1.364;2023-04-03T16:01:48;15.60;99.90
26408;DHT22;14583;43.604;1.364;2023-04-03T16:04:15;15.30;99.90
26408;DHT22;14583;43.604;1.364;2023-04-03T16:06:41;15.30;99.90
26408;DHT22;14583;43.604;1.364;2023-04-03T16:09:07;15.30;99.90
26408;DHT22;14583;43.604;1.364;2023-04-03T16:11:33;15.30;99.90
26408;DHT22;14583;43.604;1.364;2023-04-03T16:14:00;15.30;99.90
26408;DHT22;14583;43.604;1.364;2023-04-03T16:16:26;15.30;99.90
26408;DHT22;14583;43.604;1.364;2023-04-03T16:18:54;15.50;99.90
26408;DHT22;14583;43.604;1.364;2023-04-03T16:21:20;15.60;99.90
26408;DHT22;14583;43.604;1.364;2023-04-03T16:23:46;16.00;99.90
26408;DHT22;14583;43.604;1.364;2023-04-03T16:26:12;16.30;99.90
26408;DHT22;14583;43.604;1.364;2023-04-03T16:28:38;20.50;99.90
26408;DHT22;14583;43.604;1.364;2023-04-03T16:31:05;27.70;92.30
26408;DHT22;14583;43.604;1.364;2023-04-03T16:33:32;31.40;74.20
26408;DHT22;14583;43.604;1.364;2023-04-03T16:35:58;32.00;66.20
26408;DHT22;14583;43.604;1.364;2023-04-03T16:38:24;26.50;67.00
26408;DHT22;14583;43.604;1.364;2023-04-03T16:40:49;22.70;75.10
26408;DHT22;14583;43.604;1.364;2023-04-03T16:43:15;20.70;81.20
26408;DHT22;14583;43.604;1.364;2023-04-03T16:45:41;19.10;85.50
26408;DHT22;14583;43.604;1.364;2023-04-03T16:48:08;18.50;89.10
26408;DHT22;14583;43.604;1.364;2023-04-03T16:50:33;21.70;89.60
26408;DHT22;14583;43.604;1.364;2023-04-03T16:52:59;26.70;77.80
26408;DHT22;14583;43.604;1.364;2023-04-03T16:55:25;29.90;68.30
26408;DHT22;14583;43.604;1.364;2023-04-03T16:57:51;30.30;63.70
26408;DHT22;14583;43.604;1.364;2023-04-03T17:00:16;31.70;62.10
26408;DHT22;14583;43.604;1.364;2023-04-03T17:02:42;32.00;59.40
26408;DHT22;14583;43.604;1.364;2023-04-03T17:05:08;32.50;57.80
26408;DHT22;14583;43.604;1.364;2023-04-03T17:07:34;30.60;58.70
26408;DHT22;14583;43.604;1.364;2023-04-03T17:09:59;25.90;61.60
26408;DHT22;14583;43.604;1.364;2023-04-03T17:12:25;22.70;68.90
26408;DHT22;14583;43.604;1.364;2023-04-03T17:14:51;22.10;74.70
26408;DHT22;14583;43.604;1.364;2023-04-03T17:17:23;20.10;76.00
26408;DHT22;14583;43.604;1.364;2023-04-03T17:19:49;18.10;82.30
26408;DHT22;14583;43.604;1.364;2023-04-03T17:22:15;17.00;86.00
26408;DHT22;14583;43.604;1.364;2023-04-03T17:24:41;16.40;89.10